createdAt,value
2022-09-24T00:00:54.235Z,6.20
2022-09-24T00:06:14.987Z,6.10
2022-09-24T00:11:30.414Z,5.70
2022-09-24T00:16:35.056Z,5.90
2022-09-24T00:21:45.477Z,5.80
2022-09-24T00:26:52.625Z,6.00
2022-09-24T00:31:58.075Z,6.10
2022-09-24T00:37:02.281Z,5.00
2022-09-24T00:42:08.075Z,5.60
2022-09-24T00:47:12.857Z,6.10
2022-09-24T00:52:18.646Z,5.40
2022-09-24T00:57:24.518Z,5.30
2022-09-24T01:02:28.348Z,5.60
2022-09-24T01:07:32.196Z,5.70
2022-09-24T01:12:41.140Z,5.20
2022-09-24T01:17:57.044Z,5.70
2022-09-24T01:23:48.425Z,5.30
2022-09-24T01:29:04.364Z,5.20
2022-09-24T01:34:09.944Z,5.60
2022-09-24T01:39:17.340Z,5.30
2022-09-24T01:44:21.090Z,5.40
2022-09-24T01:49:25.102Z,4.90
2022-09-24T01:54:35.274Z,5.30
2022-09-24T01:59:48.210Z,5.30
2022-09-24T02:04:58.889Z,4.90
2022-09-24T02:10:02.615Z,4.80
2022-09-24T02:15:15.490Z,5.40
2022-09-24T02:20:30.842Z,4.50
2022-09-24T02:25:41.198Z,4.50
2022-09-24T02:30:51.796Z,4.90
2022-09-24T02:35:55.452Z,4.70
2022-09-24T02:40:59.585Z,4.60
2022-09-24T02:46:03.460Z,4.30
2022-09-24T02:51:07.323Z,4.80
2022-09-24T02:56:11.551Z,4.30
2022-09-24T03:01:15.608Z,4.60
2022-09-24T03:06:19.717Z,4.00
2022-09-24T03:11:24.157Z,4.00
2022-09-24T03:16:28.369Z,4.90
2022-09-24T03:21:32.127Z,4.10
2022-09-24T03:26:36.052Z,4.60
2022-09-24T03:31:39.838Z,4.70
2022-09-24T03:36:43.708Z,4.50
2022-09-24T03:41:47.333Z,4.70
2022-09-24T03:46:51.027Z,4.40
2022-09-24T03:51:54.780Z,4.00
2022-09-24T03:56:58.411Z,4.60
2022-09-24T04:02:02.220Z,4.00
2022-09-24T04:07:06.674Z,4.70
2022-09-24T04:12:10.297Z,4.50
2022-09-24T04:17:15.250Z,4.00
2022-09-24T04:22:19.530Z,4.30
2022-09-24T04:27:23.418Z,4.50
2022-09-24T04:32:27.043Z,4.30
2022-09-24T04:37:30.768Z,4.20
2022-09-24T04:42:34.493Z,4.40
2022-09-24T04:47:40.851Z,4.30
2022-09-24T04:52:44.610Z,4.70
2022-09-24T04:57:51.544Z,4.40
2022-09-24T05:03:00.186Z,4.10
2022-09-24T05:08:05.197Z,3.90
2022-09-24T05:13:09.124Z,4.60
2022-09-24T05:18:13.055Z,4.70
2022-09-24T05:23:16.782Z,4.30
2022-09-24T05:28:21.737Z,3.80
2022-09-24T05:33:25.975Z,3.90
2022-09-24T05:38:33.515Z,3.90
2022-09-24T05:43:41.510Z,3.70
2022-09-24T05:48:45.230Z,4.10
2022-09-24T05:53:51.931Z,4.40
2022-09-24T05:58:56.060Z,3.80
2022-09-24T06:04:02.483Z,4.80
2022-09-24T06:09:10.512Z,3.90
2022-09-24T06:14:15.541Z,4.20
2022-09-24T06:19:19.358Z,4.60
2022-09-24T06:24:30.655Z,4.10
2022-09-24T06:29:35.915Z,4.00
2022-09-24T06:34:39.742Z,4.50
2022-09-24T06:39:45.615Z,4.30
2022-09-24T06:44:54.969Z,4.00
2022-09-24T06:50:01.565Z,3.80
2022-09-24T06:55:10.614Z,4.00
2022-09-24T07:00:36.747Z,4.40
2022-09-24T07:05:52.079Z,4.40
2022-09-24T07:10:56.069Z,4.20
2022-09-24T07:16:04.803Z,4.10
2022-09-24T07:21:18.560Z,4.20
2022-09-24T07:26:30.004Z,4.70
2022-09-24T07:31:43.687Z,4.50
2022-09-24T07:36:58.428Z,5.40
2022-09-24T07:42:06.621Z,6.00
2022-09-24T07:47:14.757Z,3.90
2022-09-24T07:52:19.492Z,4.60
2022-09-24T07:57:27.598Z,4.50
2022-09-24T08:02:31.652Z,4.80
2022-09-24T08:07:37.441Z,4.00
2022-09-24T08:12:42.634Z,4.40
2022-09-24T08:17:46.748Z,4.00
2022-09-24T08:22:55.019Z,4.00
2022-09-24T08:28:07.675Z,4.30
2022-09-24T08:33:16.415Z,3.70
2022-09-24T08:38:23.048Z,3.70
2022-09-24T08:43:34.902Z,4.20
2022-09-24T08:48:43.255Z,3.30
2022-09-24T08:54:18.026Z,3.80
2022-09-24T08:59:34.700Z,4.30
2022-09-24T09:05:03.503Z,4.50
2022-09-24T09:10:29.537Z,4.50
2022-09-24T09:15:50.799Z,4.40
2022-09-24T09:21:03.693Z,4.50
2022-09-24T09:26:11.673Z,3.60
2022-09-24T09:31:51.285Z,3.80
2022-09-24T09:37:34.490Z,4.10
2022-09-24T09:42:54.844Z,3.70
2022-09-24T09:48:03.877Z,4.00
2022-09-24T09:53:28.658Z,4.00
2022-09-24T09:58:40.676Z,5.20
2022-09-24T10:03:47.349Z,4.90
2022-09-24T10:08:52.102Z,5.30
2022-09-24T10:14:13.923Z,4.30
2022-09-24T10:19:26.364Z,5.10
2022-09-24T10:35:00.766Z,4.00
2022-09-24T10:40:22.912Z,4.30
2022-09-24T10:45:43.903Z,5.30
2022-09-24T10:50:56.253Z,4.40
2022-09-24T10:56:09.188Z,3.60
2022-09-24T11:01:21.460Z,3.40
2022-09-24T11:06:44.269Z,4.20
2022-09-24T11:11:57.167Z,3.80
2022-09-24T11:17:19.285Z,3.30
2022-09-24T11:22:42.212Z,3.50
2022-09-24T11:28:03.128Z,3.30
2022-09-24T11:39:11.675Z,3.60
2022-09-24T11:44:20.132Z,3.50
2022-09-24T11:50:16.062Z,3.80
2022-09-24T11:55:34.664Z,3.20
2022-09-24T12:00:49.058Z,4.80
2022-09-24T12:06:05.985Z,3.90
2022-09-24T12:11:34.578Z,5.00
2022-09-24T12:16:41.365Z,3.20
2022-09-24T12:21:48.268Z,2.90
2022-09-24T12:27:01.655Z,3.80
2022-09-24T12:32:36.558Z,3.30
2022-09-24T12:37:42.871Z,3.70
2022-09-24T12:43:01.961Z,4.00
2022-09-24T12:48:11.676Z,3.70
2022-09-24T12:53:25.635Z,3.60
2022-09-24T12:58:45.472Z,3.20
2022-09-24T13:04:14.225Z,3.20
2022-09-24T13:09:36.717Z,3.00
2022-09-24T13:14:44.292Z,3.50
2022-09-24T13:19:49.985Z,3.70
2022-09-24T13:25:08.529Z,3.30
2022-09-24T13:30:36.411Z,2.90
2022-09-24T13:35:46.160Z,3.30
2022-09-24T13:41:02.067Z,2.70
2022-09-24T13:46:14.184Z,2.90
2022-09-24T13:51:28.254Z,3.00
2022-09-24T13:56:34.571Z,3.30
2022-09-24T14:02:35.535Z,2.80
2022-09-24T14:08:12.662Z,2.90
2022-09-24T14:13:18.110Z,2.80
2022-09-24T14:18:26.054Z,3.30
2022-09-24T14:24:14.273Z,2.60
2022-09-24T14:29:40.752Z,2.70
2022-09-24T14:34:58.199Z,3.60
2022-09-24T14:40:41.512Z,2.70
2022-09-24T14:46:35.765Z,2.80
2022-09-24T14:51:58.322Z,2.80
2022-09-24T14:57:17.493Z,2.90
2022-09-24T15:02:40.371Z,3.10
2022-09-24T15:07:54.551Z,2.90
2022-09-24T15:13:00.816Z,2.90
2022-09-24T15:18:27.266Z,2.50
2022-09-24T15:23:41.439Z,2.70
2022-09-24T15:28:53.764Z,2.60
2022-09-24T15:34:28.195Z,3.00
2022-09-24T15:40:25.489Z,3.00
2022-09-24T15:45:36.866Z,2.60
2022-09-24T15:51:01.962Z,2.90
2022-09-24T15:56:16.447Z,3.10
2022-09-24T16:01:25.705Z,2.90
2022-09-24T16:06:43.554Z,2.80
2022-09-24T16:11:59.843Z,2.70
2022-09-24T16:17:04.147Z,2.70
2022-09-24T16:22:12.736Z,2.90
2022-09-24T16:27:19.198Z,3.20
2022-09-24T16:32:24.931Z,4.30
2022-09-24T16:37:29.066Z,3.50
2022-09-24T16:42:34.392Z,4.00
2022-09-24T16:47:38.160Z,3.80
2022-09-24T16:52:45.160Z,3.90
2022-09-24T16:57:48.988Z,3.90
2022-09-24T17:02:52.815Z,3.70
2022-09-24T17:07:56.581Z,3.40
2022-09-24T17:13:03.266Z,3.40
2022-09-24T17:18:12.716Z,3.60
2022-09-24T17:23:16.512Z,4.30
2022-09-24T17:28:21.776Z,3.80
2022-09-24T17:33:42.963Z,3.60
2022-09-24T17:38:49.519Z,4.30
2022-09-24T17:44:02.848Z,3.80
2022-09-24T17:49:22.352Z,3.60
2022-09-24T17:54:29.012Z,4.60
2022-09-24T17:59:33.174Z,4.80
2022-09-24T18:04:42.961Z,5.40
2022-09-24T18:09:47.049Z,6.20
2022-09-24T18:14:52.046Z,7.80
2022-09-24T18:19:55.827Z,6.70
2022-09-24T18:25:02.520Z,8.70
2022-09-24T18:30:13.154Z,8.00
2022-09-24T18:35:31.169Z,7.50
2022-09-24T18:40:38.709Z,8.20
2022-09-24T18:45:42.598Z,8.20
2022-09-24T18:50:46.437Z,9.60
2022-09-24T18:56:00.901Z,8.50
2022-09-24T19:01:08.240Z,8.90
2022-09-24T19:06:13.266Z,11.30
2022-09-24T19:11:18.626Z,10.60
2022-09-24T19:16:24.073Z,10.50
2022-09-24T19:21:28.729Z,11.90
2022-09-24T19:26:42.757Z,11.30
2022-09-24T19:31:52.250Z,11.90
2022-09-24T19:37:06.080Z,13.40
2022-09-24T19:42:11.468Z,12.40
2022-09-24T19:47:16.013Z,13.00
2022-09-24T19:52:37.528Z,13.30
2022-09-24T19:58:10.574Z,15.20
2022-09-24T20:03:46.601Z,13.70
2022-09-24T20:09:28.036Z,13.40
2022-09-24T20:14:36.048Z,13.40
2022-09-24T20:19:44.138Z,14.90
2022-09-24T20:24:48.981Z,14.40
2022-09-24T20:29:56.457Z,14.10
2022-09-24T20:35:15.961Z,14.00
2022-09-24T20:40:31.435Z,13.60
2022-09-24T20:45:41.595Z,14.10
2022-09-24T20:50:47.726Z,12.50
2022-09-24T20:55:54.280Z,13.60
2022-09-24T21:01:04.344Z,12.60
2022-09-24T21:06:12.396Z,12.80
2022-09-24T21:11:21.661Z,12.80
2022-09-24T21:16:29.057Z,13.90
2022-09-24T21:21:38.572Z,13.50
2022-09-24T21:26:48.700Z,12.30
2022-09-24T21:31:53.445Z,11.90
2022-09-24T21:36:57.775Z,12.30
2022-09-24T21:42:01.615Z,11.90
2022-09-24T21:47:05.859Z,11.20
2022-09-24T21:52:10.055Z,10.80
2022-09-24T21:57:15.048Z,11.80
2022-09-24T22:02:19.047Z,10.60
2022-09-24T22:07:24.129Z,11.20
2022-09-24T22:12:28.174Z,11.00
2022-09-24T22:17:32.303Z,11.30
2022-09-24T22:22:36.024Z,10.80
2022-09-24T22:27:39.685Z,10.30
2022-09-24T22:32:43.476Z,11.20
2022-09-24T22:37:47.578Z,10.30
2022-09-24T22:42:51.948Z,9.90
2022-09-24T22:47:57.208Z,10.40
2022-09-24T22:53:03.289Z,10.30
2022-09-24T22:58:22.816Z,10.60
2022-09-24T23:03:30.899Z,10.00
2022-09-24T23:08:38.819Z,10.40
2022-09-24T23:13:45.105Z,10.40
2022-09-24T23:18:52.001Z,10.20
2022-09-24T23:24:00.543Z,11.10
2022-09-24T23:29:04.574Z,10.70
2022-09-24T23:34:08.406Z,10.30
2022-09-24T23:39:15.608Z,12.60
2022-09-24T23:44:19.736Z,10.00
2022-09-24T23:49:23.768Z,10.20
2022-09-24T23:54:28.620Z,10.20
2022-09-24T23:59:33.271Z,9.40
